sensor_id;sensor_type;location;lat;lon;timestamp;temperature;humidity
17172;DHT22;8701;50.150;8.756;2023-07-13T00:03:47;21.80;96.00
17172;DHT22;8701;50.150;8.756;2023-07-13T00:07:50;21.80;96.10
17172;DHT22;8701;50.150;8.756;2023-07-13T00:11:55;21.80;96.00
17172;DHT22;8701;50.150;8.756;2023-07-13T00:15:58;21.90;96.20
17172;DHT22;8701;50.150;8.756;2023-07-13T00:20:03;21.90;95.20
17172;DHT22;8701;50.150;8.756;2023-07-13T00:24:06;21.90;96.00
17172;DHT22;8701;50.150;8.756;2023-07-13T00:28:09;21.90;96.80
17172;DHT22;8701;50.150;8.756;2023-07-13T00:32:12;22.00;96.50
17172;DHT22;8701;50.150;8.756;2023-07-13T00:36:14;21.90;95.40
17172;DHT22;8701;50.150;8.756;2023-07-13T00:40:16;21.90;96.20
17172;DHT22;8701;50.150;8.756;2023-07-13T00:44:21;21.80;95.60
17172;DHT22;8701;50.150;8.756;2023-07-13T00:48:27;21.80;95.70
17172;DHT22;8701;50.150;8.756;2023-07-13T00:52:31;21.70;95.60
17172;DHT22;8701;50.150;8.756;2023-07-13T00:56:35;21.70;95.90
17172;DHT22;8701;50.150;8.756;2023-07-13T01:00:40;21.60;96.70
17172;DHT22;8701;50.150;8.756;2023-07-13T01:04:42;21.50;95.90
17172;DHT22;8701;50.150;8.756;2023-07-13T01:08:45;21.50;96.10
17172;DHT22;8701;50.150;8.756;2023-07-13T01:12:48;21.40;96.50
17172;DHT22;8701;50.150;8.756;2023-07-13T01:16:51;21.30;95.80
17172;DHT22;8701;50.150;8.756;2023-07-13T01:20:57;21.30;96.50
17172;DHT22;8701;50.150;8.756;2023-07-13T01:24:59;21.30;96.40
17172;DHT22;8701;50.150;8.756;2023-07-13T01:29:01;21.20;96.70
17172;DHT22;8701;50.150;8.756;2023-07-13T01:33:04;21.20;96.70
17172;DHT22;8701;50.150;8.756;2023-07-13T01:37:08;21.20;97.10
17172;DHT22;8701;50.150;8.756;2023-07-13T01:41:10;21.10;96.90
17172;DHT22;8701;50.150;8.756;2023-07-13T01:45:13;21.10;96.90
17172;DHT22;8701;50.150;8.756;2023-07-13T01:49:15;21.00;97.20
17172;DHT22;8701;50.150;8.756;2023-07-13T01:53:19;21.00;96.70
17172;DHT22;8701;50.150;8.756;2023-07-13T01:57:21;20.90;96.80
17172;DHT22;8701;50.150;8.756;2023-07-13T02:01:23;20.90;97.00
17172;DHT22;8701;50.150;8.756;2023-07-13T02:05:25;20.80;97.30
17172;DHT22;8701;50.150;8.756;2023-07-13T02:09:29;20.80;96.50
17172;DHT22;8701;50.150;8.756;2023-07-13T02:13:32;20.70;96.50
17172;DHT22;8701;50.150;8.756;2023-07-13T02:17:34;20.70;96.30
17172;DHT22;8701;50.150;8.756;2023-07-13T02:21:36;20.70;97.30
17172;DHT22;8701;50.150;8.756;2023-07-13T02:25:40;20.70;96.80
17172;DHT22;8701;50.150;8.756;2023-07-13T02:29:43;20.70;97.00
17172;DHT22;8701;50.150;8.756;2023-07-13T02:33:46;20.70;97.40
17172;DHT22;8701;50.150;8.756;2023-07-13T02:37:48;20.70;97.90
17172;DHT22;8701;50.150;8.756;2023-07-13T02:41:52;20.60;98.10
17172;DHT22;8701;50.150;8.756;2023-07-13T02:45:54;20.60;96.70
17172;DHT22;8701;50.150;8.756;2023-07-13T02:49:56;20.50;97.30
17172;DHT22;8701;50.150;8.756;2023-07-13T02:53:58;20.40;97.20
17172;DHT22;8701;50.150;8.756;2023-07-13T02:58:03;20.30;97.70
17172;DHT22;8701;50.150;8.756;2023-07-13T03:02:05;20.30;97.50
17172;DHT22;8701;50.150;8.756;2023-07-13T03:06:07;20.30;97.70
17172;DHT22;8701;50.150;8.756;2023-07-13T03:10:17;20.30;97.60
17172;DHT22;8701;50.150;8.756;2023-07-13T03:14:24;20.30;97.70
17172;DHT22;8701;50.150;8.756;2023-07-13T03:18:28;20.30;98.10
17172;DHT22;8701;50.150;8.756;2023-07-13T03:22:33;20.30;97.80
17172;DHT22;8701;50.150;8.756;2023-07-13T03:26:36;20.30;98.50
17172;DHT22;8701;50.150;8.756;2023-07-13T03:30:40;20.30;98.80
17172;DHT22;8701;50.150;8.756;2023-07-13T03:34:43;20.20;99.20
17172;DHT22;8701;50.150;8.756;2023-07-13T03:38:46;20.10;99.90
17172;DHT22;8701;50.150;8.756;2023-07-13T03:42:49;20.10;99.90
17172;DHT22;8701;50.150;8.756;2023-07-13T03:46:54;19.90;99.90
17172;DHT22;8701;50.150;8.756;2023-07-13T03:50:56;19.90;99.90
17172;DHT22;8701;50.150;8.756;2023-07-13T03:54:59;19.80;99.90
17172;DHT22;8701;50.150;8.756;2023-07-13T03:59:01;19.70;99.90
17172;DHT22;8701;50.150;8.756;2023-07-13T04:03:06;19.70;99.90
17172;DHT22;8701;50.150;8.756;2023-07-13T04:07:08;19.60;99.40
17172;DHT22;8701;50.150;8.756;2023-07-13T04:11:14;19.50;98.90
17172;DHT22;8701;50.150;8.756;2023-07-13T04:15:17;19.50;98.90
17172;DHT22;8701;50.150;8.756;2023-07-13T04:19:21;19.50;99.30
17172;DHT22;8701;50.150;8.756;2023-07-13T04:23:23;19.50;98.60
17172;DHT22;8701;50.150;8.756;2023-07-13T04:27:25;19.50;99.50
17172;DHT22;8701;50.150;8.756;2023-07-13T04:31:29;19.50;99.90
17172;DHT22;8701;50.150;8.756;2023-07-13T04:35:33;19.40;99.80
17172;DHT22;8701;50.150;8.756;2023-07-13T04:39:35;19.40;99.90
17172;DHT22;8701;50.150;8.756;2023-07-13T04:43:38;19.40;99.90
17172;DHT22;8701;50.150;8.756;2023-07-13T04:47:40;19.40;99.90
17172;DHT22;8701;50.150;8.756;2023-07-13T04:51:44;19.40;99.90
17172;DHT22;8701;50.150;8.756;2023-07-13T04:55:46;19.40;99.90
17172;DHT22;8701;50.150;8.756;2023-07-13T04:59:49;19.50;99.90
17172;DHT22;8701;50.150;8.756;2023-07-13T05:03:51;19.50;99.90
17172;DHT22;8701;50.150;8.756;2023-07-13T05:07:54;19.50;99.90
17172;DHT22;8701;50.150;8.756;2023-07-13T05:11:57;19.50;99.90
17172;DHT22;8701;50.150;8.756;2023-07-13T05:16:00;19.50;99.90
17172;DHT22;8701;50.150;8.756;2023-07-13T05:20:04;19.60;99.90
17172;DHT22;8701;50.150;8.756;2023-07-13T05:24:07;19.70;99.90
17172;DHT22;8701;50.150;8.756;2023-07-13T05:28:10;19.60;99.80
17172;DHT22;8701;50.150;8.756;2023-07-13T05:32:12;19.70;99.50
17172;DHT22;8701;50.150;8.756;2023-07-13T05:36:14;19.70;99.20
17172;DHT22;8701;50.150;8.756;2023-07-13T05:40:18;19.80;99.70
17172;DHT22;8701;50.150;8.756;2023-07-13T05:44:20;19.90;98.70
17172;DHT22;8701;50.150;8.756;2023-07-13T05:48:22;19.90;98.10
17172;DHT22;8701;50.150;8.756;2023-07-13T05:52:25;20.00;99.00
17172;DHT22;8701;50.150;8.756;2023-07-13T05:56:28;20.10;99.90
17172;DHT22;8701;50.150;8.756;2023-07-13T06:00:30;20.20;99.00
17172;DHT22;8701;50.150;8.756;2023-07-13T06:04:32;20.30;97.60
17172;DHT22;8701;50.150;8.756;2023-07-13T06:08:35;20.40;98.00
17172;DHT22;8701;50.150;8.756;2023-07-13T06:12:39;20.50;97.80
17172;DHT22;8701;50.150;8.756;2023-07-13T06:16:41;20.60;99.60
17172;DHT22;8701;50.150;8.756;2023-07-13T06:20:43;20.70;98.20
17172;DHT22;8701;50.150;8.756;2023-07-13T06:24:45;20.80;96.80
17172;DHT22;8701;50.150;8.756;2023-07-13T06:28:49;20.80;97.40
17172;DHT22;8701;50.150;8.756;2023-07-13T06:32:51;20.90;96.90
17172;DHT22;8701;50.150;8.756;2023-07-13T06:36:53;21.00;96.90
17172;DHT22;8701;50.150;8.756;2023-07-13T06:40:55;21.10;98.90
17172;DHT22;8701;50.150;8.756;2023-07-13T06:44:59;21.20;96.30
17172;DHT22;8701;50.150;8.756;2023-07-13T06:49:01;21.20;97.40
17172;DHT22;8701;50.150;8.756;2023-07-13T06:53:03;21.30;96.30
17172;DHT22;8701;50.150;8.756;2023-07-13T06:57:05;21.30;96.50
17172;DHT22;8701;50.150;8.756;2023-07-13T07:01:09;21.50;96.90
17172;DHT22;8701;50.150;8.756;2023-07-13T07:05:11;21.50;96.10
17172;DHT22;8701;50.150;8.756;2023-07-13T07:09:14;21.60;96.10
17172;DHT22;8701;50.150;8.756;2023-07-13T07:13:17;21.70;96.70
17172;DHT22;8701;50.150;8.756;2023-07-13T07:17:20;21.80;97.60
17172;DHT22;8701;50.150;8.756;2023-07-13T07:21:23;22.00;97.40
17172;DHT22;8701;50.150;8.756;2023-07-13T07:25:25;22.10;97.80
17172;DHT22;8701;50.150;8.756;2023-07-13T07:29:27;22.20;97.10
17172;DHT22;8701;50.150;8.756;2023-07-13T07:33:32;22.30;95.50
17172;DHT22;8701;50.150;8.756;2023-07-13T07:37:34;22.50;97.00
17172;DHT22;8701;50.150;8.756;2023-07-13T07:41:37;22.60;94.80
17172;DHT22;8701;50.150;8.756;2023-07-13T07:45:44;23.10;94.40
17172;DHT22;8701;50.150;8.756;2023-07-13T07:49:48;23.70;93.90
17172;DHT22;8701;50.150;8.756;2023-07-13T07:53:50;24.30;94.80
17172;DHT22;8701;50.150;8.756;2023-07-13T07:57:52;25.10;93.10
17172;DHT22;8701;50.150;8.756;2023-07-13T08:01:54;25.30;93.40
17172;DHT22;8701;50.150;8.756;2023-07-13T08:05:58;25.80;92.20
17172;DHT22;8701;50.150;8.756;2023-07-13T08:10:00;26.30;90.70
17172;DHT22;8701;50.150;8.756;2023-07-13T08:14:02;26.70;90.80
17172;DHT22;8701;50.150;8.756;2023-07-13T08:18:05;27.10;91.60
17172;DHT22;8701;50.150;8.756;2023-07-13T08:22:09;27.60;89.70
17172;DHT22;8701;50.150;8.756;2023-07-13T08:26:12;27.40;90.50
17172;DHT22;8701;50.150;8.756;2023-07-13T08:30:14;27.50;91.40
17172;DHT22;8701;50.150;8.756;2023-07-13T08:34:16;27.90;88.70
17172;DHT22;8701;50.150;8.756;2023-07-13T08:38:20;28.30;86.40
17172;DHT22;8701;50.150;8.756;2023-07-13T08:42:32;28.00;87.80
17172;DHT22;8701;50.150;8.756;2023-07-13T08:46:37;27.90;85.70
17172;DHT22;8701;50.150;8.756;2023-07-13T08:50:46;27.60;83.90
17172;DHT22;8701;50.150;8.756;2023-07-13T08:54:53;27.50;86.10
17172;DHT22;8701;50.150;8.756;2023-07-13T08:58:58;28.50;87.20
17172;DHT22;8701;50.150;8.756;2023-07-13T09:03:02;28.70;82.60
17172;DHT22;8701;50.150;8.756;2023-07-13T09:07:13;29.20;84.70
17172;DHT22;8701;50.150;8.756;2023-07-13T09:11:27;29.40;81.10
17172;DHT22;8701;50.150;8.756;2023-07-13T09:15:34;29.40;82.70
17172;DHT22;8701;50.150;8.756;2023-07-13T09:19:37;29.50;84.80
17172;DHT22;8701;50.150;8.756;2023-07-13T09:23:39;29.90;82.30
17172;DHT22;8701;50.150;8.756;2023-07-13T09:27:46;30.10;83.60
17172;DHT22;8701;50.150;8.756;2023-07-13T09:31:53;30.10;80.70
17172;DHT22;8701;50.150;8.756;2023-07-13T09:35:56;29.80;82.40
17172;DHT22;8701;50.150;8.756;2023-07-13T09:40:01;30.00;78.80
17172;DHT22;8701;50.150;8.756;2023-07-13T09:44:12;30.60;79.30
17172;DHT22;8701;50.150;8.756;2023-07-13T09:48:16;31.10;77.40
17172;DHT22;8701;50.150;8.756;2023-07-13T09:52:19;30.50;77.10
17172;DHT22;8701;50.150;8.756;2023-07-13T09:56:22;30.00;84.00
17172;DHT22;8701;50.150;8.756;2023-07-13T10:00:28;30.00;77.90
17172;DHT22;8701;50.150;8.756;2023-07-13T10:04:32;29.70;77.50
17172;DHT22;8701;50.150;8.756;2023-07-13T10:08:35;29.30;78.50
17172;DHT22;8701;50.150;8.756;2023-07-13T10:12:38;29.10;78.00
17172;DHT22;8701;50.150;8.756;2023-07-13T10:16:43;29.00;84.20
17172;DHT22;8701;50.150;8.756;2023-07-13T10:20:45;29.80;82.70
17172;DHT22;8701;50.150;8.756;2023-07-13T10:24:49;29.90;78.60
17172;DHT22;8701;50.150;8.756;2023-07-13T10:28:54;30.00;76.70
17172;DHT22;8701;50.150;8.756;2023-07-13T10:33:02;29.80;79.30
17172;DHT22;8701;50.150;8.756;2023-07-13T10:37:13;29.40;78.10
17172;DHT22;8701;50.150;8.756;2023-07-13T10:41:20;28.60;77.40
17172;DHT22;8701;50.150;8.756;2023-07-13T10:45:24;28.40;80.00
17172;DHT22;8701;50.150;8.756;2023-07-13T10:49:30;28.50;79.10
17172;DHT22;8701;50.150;8.756;2023-07-13T10:53:34;29.20;80.80
17172;DHT22;8701;50.150;8.756;2023-07-13T10:57:42;29.70;79.00
17172;DHT22;8701;50.150;8.756;2023-07-13T11:01:51;30.10;77.00
17172;DHT22;8701;50.150;8.756;2023-07-13T11:06:08;30.20;76.60
17172;DHT22;8701;50.150;8.756;2023-07-13T11:10:49;30.50;76.20
17172;DHT22;8701;50.150;8.756;2023-07-13T11:15:03;29.70;77.10
17172;DHT22;8701;50.150;8.756;2023-07-13T11:19:28;29.10;77.20
17172;DHT22;8701;50.150;8.756;2023-07-13T11:23:42;29.60;74.10
17172;DHT22;8701;50.150;8.756;2023-07-13T11:27:49;29.90;75.80
17172;DHT22;8701;50.150;8.756;2023-07-13T11:31:54;29.60;76.50
17172;DHT22;8701;50.150;8.756;2023-07-13T11:36:03;30.00;77.90
17172;DHT22;8701;50.150;8.756;2023-07-13T11:40:13;30.70;75.90
17172;DHT22;8701;50.150;8.756;2023-07-13T11:44:18;30.70;75.70
17172;DHT22;8701;50.150;8.756;2023-07-13T11:48:23;30.70;74.30
17172;DHT22;8701;50.150;8.756;2023-07-13T11:52:31;30.60;75.70
17172;DHT22;8701;50.150;8.756;2023-07-13T11:56:36;30.00;75.00
17172;DHT22;8701;50.150;8.756;2023-07-13T12:00:39;30.00;74.10
17172;DHT22;8701;50.150;8.756;2023-07-13T12:04:42;30.20;75.40
17172;DHT22;8701;50.150;8.756;2023-07-13T12:08:45;29.70;71.60
17172;DHT22;8701;50.150;8.756;2023-07-13T12:12:56;29.60;75.70
17172;DHT22;8701;50.150;8.756;2023-07-13T12:16:58;29.50;73.90
17172;DHT22;8701;50.150;8.756;2023-07-13T12:21:00;29.40;78.80
17172;DHT22;8701;50.150;8.756;2023-07-13T12:25:04;29.30;77.50
17172;DHT22;8701;50.150;8.756;2023-07-13T12:29:13;28.60;74.70
17172;DHT22;8701;50.150;8.756;2023-07-13T12:33:17;28.60;78.40
17172;DHT22;8701;50.150;8.756;2023-07-13T12:37:19;28.70;74.00
17172;DHT22;8701;50.150;8.756;2023-07-13T12:41:21;28.40;78.30
17172;DHT22;8701;50.150;8.756;2023-07-13T12:45:27;28.10;74.60
17172;DHT22;8701;50.150;8.756;2023-07-13T12:49:32;27.80;78.20
17172;DHT22;8701;50.150;8.756;2023-07-13T12:53:40;27.70;79.40
17172;DHT22;8701;50.150;8.756;2023-07-13T12:57:49;27.80;78.60
17172;DHT22;8701;50.150;8.756;2023-07-13T13:01:53;27.80;78.10
17172;DHT22;8701;50.150;8.756;2023-07-13T13:05:59;27.90;84.90
17172;DHT22;8701;50.150;8.756;2023-07-13T13:10:11;27.60;79.90
17172;DHT22;8701;50.150;8.756;2023-07-13T13:14:13;27.40;83.10
17172;DHT22;8701;50.150;8.756;2023-07-13T13:18:18;27.20;78.00
17172;DHT22;8701;50.150;8.756;2023-07-13T13:22:21;27.10;79.80
17172;DHT22;8701;50.150;8.756;2023-07-13T13:26:23;27.20;83.40
17172;DHT22;8701;50.150;8.756;2023-07-13T13:30:27;27.10;80.80
17172;DHT22;8701;50.150;8.756;2023-07-13T13:34:30;27.30;80.70
17172;DHT22;8701;50.150;8.756;2023-07-13T13:38:32;27.30;82.10
17172;DHT22;8701;50.150;8.756;2023-07-13T13:42:35;27.30;79.80
17172;DHT22;8701;50.150;8.756;2023-07-13T13:46:37;27.20;80.60
17172;DHT22;8701;50.150;8.756;2023-07-13T13:50:41;27.10;79.70
17172;DHT22;8701;50.150;8.756;2023-07-13T13:54:43;26.90;77.30
17172;DHT22;8701;50.150;8.756;2023-07-13T13:58:46;27.00;78.50
17172;DHT22;8701;50.150;8.756;2023-07-13T14:02:48;27.10;80.90
17172;DHT22;8701;50.150;8.756;2023-07-13T14:06:54;27.00;77.60
17172;DHT22;8701;50.150;8.756;2023-07-13T14:10:57;27.10;80.90
17172;DHT22;8701;50.150;8.756;2023-07-13T14:15:00;27.00;78.60
17172;DHT22;8701;50.150;8.756;2023-07-13T14:19:02;27.10;84.20
17172;DHT22;8701;50.150;8.756;2023-07-13T14:23:06;27.10;81.00
17172;DHT22;8701;50.150;8.756;2023-07-13T14:27:09;26.90;77.00
17172;DHT22;8701;50.150;8.756;2023-07-13T14:31:13;26.90;82.10
17172;DHT22;8701;50.150;8.756;2023-07-13T14:35:18;27.00;83.00
17172;DHT22;8701;50.150;8.756;2023-07-13T14:39:24;26.90;82.90
17172;DHT22;8701;50.150;8.756;2023-07-13T14:43:27;26.80;82.20
17172;DHT22;8701;50.150;8.756;2023-07-13T14:47:30;26.60;85.40
17172;DHT22;8701;50.150;8.756;2023-07-13T14:51:33;26.40;85.70
17172;DHT22;8701;50.150;8.756;2023-07-13T14:55:37;26.30;82.90
17172;DHT22;8701;50.150;8.756;2023-07-13T14:59:39;26.10;83.50
17172;DHT22;8701;50.150;8.756;2023-07-13T15:03:48;26.10;82.50
17172;DHT22;8701;50.150;8.756;2023-07-13T15:07:51;26.10;84.10
17172;DHT22;8701;50.150;8.756;2023-07-13T15:11:56;26.20;86.40
17172;DHT22;8701;50.150;8.756;2023-07-13T15:15:58;26.40;85.90
17172;DHT22;8701;50.150;8.756;2023-07-13T15:20:14;26.50;84.90
17172;DHT22;8701;50.150;8.756;2023-07-13T15:24:17;26.50;82.50
17172;DHT22;8701;50.150;8.756;2023-07-13T15:28:21;26.40;82.90
17172;DHT22;8701;50.150;8.756;2023-07-13T15:32:23;26.30;83.10
17172;DHT22;8701;50.150;8.756;2023-07-13T15:36:26;26.20;82.70
17172;DHT22;8701;50.150;8.756;2023-07-13T15:40:28;25.90;80.90
17172;DHT22;8701;50.150;8.756;2023-07-13T15:44:32;26.00;84.00
17172;DHT22;8701;50.150;8.756;2023-07-13T15:48:35;25.90;84.10
17172;DHT22;8701;50.150;8.756;2023-07-13T15:52:37;26.10;86.70
17172;DHT22;8701;50.150;8.756;2023-07-13T15:56:40;26.30;85.40
17172;DHT22;8701;50.150;8.756;2023-07-13T16:00:44;26.20;85.70
17172;DHT22;8701;50.150;8.756;2023-07-13T16:04:47;26.20;83.40
17172;DHT22;8701;50.150;8.756;2023-07-13T16:08:50;25.90;80.60
17172;DHT22;8701;50.150;8.756;2023-07-13T16:12:53;25.90;84.00
17172;DHT22;8701;50.150;8.756;2023-07-13T16:16:58;25.90;83.30
17172;DHT22;8701;50.150;8.756;2023-07-13T16:21:00;25.90;82.40
17172;DHT22;8701;50.150;8.756;2023-07-13T16:25:13;25.70;81.70
17172;DHT22;8701;50.150;8.756;2023-07-13T16:29:17;25.80;84.60
17172;DHT22;8701;50.150;8.756;2023-07-13T16:33:21;25.70;86.50
17172;DHT22;8701;50.150;8.756;2023-07-13T16:37:26;25.60;80.70
17172;DHT22;8701;50.150;8.756;2023-07-13T16:41:29;25.60;80.40
17172;DHT22;8701;50.150;8.756;2023-07-13T16:45:33;25.60;85.80
17172;DHT22;8701;50.150;8.756;2023-07-13T16:49:37;25.60;82.70
17172;DHT22;8701;50.150;8.756;2023-07-13T16:53:40;25.60;82.30
17172;DHT22;8701;50.150;8.756;2023-07-13T16:57:45;25.40;81.30
17172;DHT22;8701;50.150;8.756;2023-07-13T17:01:49;25.40;83.10
17172;DHT22;8701;50.150;8.756;2023-07-13T17:05:53;25.30;87.40
17172;DHT22;8701;50.150;8.756;2023-07-13T17:09:56;25.30;84.10
17172;DHT22;8701;50.150;8.756;2023-07-13T17:13:58;25.20;87.50
17172;DHT22;8701;50.150;8.756;2023-07-13T17:18:01;25.20;81.20
17172;DHT22;8701;50.150;8.756;2023-07-13T17:22:09;25.20;86.20
17172;DHT22;8701;50.150;8.756;2023-07-13T17:26:18;25.20;88.40
17172;DHT22;8701;50.150;8.756;2023-07-13T17:30:22;25.10;81.70
17172;DHT22;8701;50.150;8.756;2023-07-13T17:34:24;25.10;84.10
17172;DHT22;8701;50.150;8.756;2023-07-13T17:38:34;25.00;86.50
17172;DHT22;8701;50.150;8.756;2023-07-13T17:42:40;25.00;83.20
17172;DHT22;8701;50.150;8.756;2023-07-13T17:46:43;25.10;87.90
17172;DHT22;8701;50.150;8.756;2023-07-13T17:50:47;25.10;84.40
17172;DHT22;8701;50.150;8.756;2023-07-13T17:54:52;25.00;86.10
17172;DHT22;8701;50.150;8.756;2023-07-13T17:58:54;25.00;84.50
17172;DHT22;8701;50.150;8.756;2023-07-13T18:02:58;24.90;84.90
17172;DHT22;8701;50.150;8.756;2023-07-13T18:07:01;24.80;87.20
17172;DHT22;8701;50.150;8.756;2023-07-13T18:11:10;24.70;85.60
17172;DHT22;8701;50.150;8.756;2023-07-13T18:15:13;24.60;89.90
17172;DHT22;8701;50.150;8.756;2023-07-13T18:19:23;24.50;87.40
17172;DHT22;8701;50.150;8.756;2023-07-13T18:23:26;24.40;86.90
17172;DHT22;8701;50.150;8.756;2023-07-13T18:27:30;24.30;87.20
17172;DHT22;8701;50.150;8.756;2023-07-13T18:31:34;24.30;87.80
17172;DHT22;8701;50.150;8.756;2023-07-13T18:35:37;24.20;87.90
17172;DHT22;8701;50.150;8.756;2023-07-13T18:39:40;24.20;88.00
17172;DHT22;8701;50.150;8.756;2023-07-13T18:43:44;24.00;87.70
17172;DHT22;8701;50.150;8.756;2023-07-13T18:47:52;24.00;89.00
17172;DHT22;8701;50.150;8.756;2023-07-13T18:51:55;23.90;88.80
17172;DHT22;8701;50.150;8.756;2023-07-13T18:55:58;23.80;87.60
17172;DHT22;8701;50.150;8.756;2023-07-13T19:00:01;23.80;88.20
17172;DHT22;8701;50.150;8.756;2023-07-13T19:04:25;23.60;87.00
17172;DHT22;8701;50.150;8.756;2023-07-13T19:08:28;23.60;87.40
17172;DHT22;8701;50.150;8.756;2023-07-13T19:12:30;23.50;87.00
17172;DHT22;8701;50.150;8.756;2023-07-13T19:16:35;23.50;87.30
17172;DHT22;8701;50.150;8.756;2023-07-13T19:20:39;23.40;87.30
17172;DHT22;8701;50.150;8.756;2023-07-13T19:24:43;23.30;87.50
17172;DHT22;8701;50.150;8.756;2023-07-13T19:28:45;23.30;87.30
17172;DHT22;8701;50.150;8.756;2023-07-13T19:32:51;23.20;88.60
17172;DHT22;8701;50.150;8.756;2023-07-13T19:36:59;23.10;88.70
17172;DHT22;8701;50.150;8.756;2023-07-13T19:41:02;23.00;88.50
17172;DHT22;8701;50.150;8.756;2023-07-13T19:45:07;23.00;91.30
17172;DHT22;8701;50.150;8.756;2023-07-13T19:49:17;22.90;91.10
17172;DHT22;8701;50.150;8.756;2023-07-13T19:53:20;22.90;90.20
17172;DHT22;8701;50.150;8.756;2023-07-13T19:57:25;22.80;91.10
17172;DHT22;8701;50.150;8.756;2023-07-13T20:01:28;22.80;90.00
17172;DHT22;8701;50.150;8.756;2023-07-13T20:05:33;22.80;90.20
17172;DHT22;8701;50.150;8.756;2023-07-13T20:09:36;22.70;90.30
17172;DHT22;8701;50.150;8.756;2023-07-13T20:13:39;22.60;90.00
17172;DHT22;8701;50.150;8.756;2023-07-13T20:17:42;22.60;90.20
17172;DHT22;8701;50.150;8.756;2023-07-13T20:21:47;22.50;90.50
17172;DHT22;8701;50.150;8.756;2023-07-13T20:25:49;22.40;90.80
17172;DHT22;8701;50.150;8.756;2023-07-13T20:29:52;22.40;90.80
17172;DHT22;8701;50.150;8.756;2023-07-13T20:33:58;22.30;90.80
17172;DHT22;8701;50.150;8.756;2023-07-13T20:38:03;22.30;91.10
17172;DHT22;8701;50.150;8.756;2023-07-13T20:42:09;22.20;91.10
17172;DHT22;8701;50.150;8.756;2023-07-13T20:46:14;22.20;90.70
17172;DHT22;8701;50.150;8.756;2023-07-13T20:50:21;22.10;91.10
17172;DHT22;8701;50.150;8.756;2023-07-13T20:54:25;22.10;90.70
17172;DHT22;8701;50.150;8.756;2023-07-13T20:58:27;22.00;90.90
17172;DHT22;8701;50.150;8.756;2023-07-13T21:02:31;21.90;93.10
17172;DHT22;8701;50.150;8.756;2023-07-13T21:06:34;21.80;92.60
17172;DHT22;8701;50.150;8.756;2023-07-13T21:10:38;21.80;92.70
17172;DHT22;8701;50.150;8.756;2023-07-13T21:14:41;21.70;93.20
17172;DHT22;8701;50.150;8.756;2023-07-13T21:18:43;21.70;93.20
17172;DHT22;8701;50.150;8.756;2023-07-13T21:22:46;21.60;94.10
17172;DHT22;8701;50.150;8.756;2023-07-13T21:26:49;21.50;95.20
17172;DHT22;8701;50.150;8.756;2023-07-13T21:30:54;21.40;95.60
17172;DHT22;8701;50.150;8.756;2023-07-13T21:34:57;21.30;95.50
17172;DHT22;8701;50.150;8.756;2023-07-13T21:39:05;21.30;95.20
17172;DHT22;8701;50.150;8.756;2023-07-13T21:43:10;21.30;94.70
17172;DHT22;8701;50.150;8.756;2023-07-13T21:47:13;21.20;95.50
17172;DHT22;8701;50.150;8.756;2023-07-13T21:51:18;21.20;95.90
17172;DHT22;8701;50.150;8.756;2023-07-13T21:55:22;21.10;96.40
17172;DHT22;8701;50.150;8.756;2023-07-13T21:59:27;21.10;95.80
17172;DHT22;8701;50.150;8.756;2023-07-13T22:03:30;21.00;95.20
17172;DHT22;8701;50.150;8.756;2023-07-13T22:07:35;21.00;95.30
17172;DHT22;8701;50.150;8.756;2023-07-13T22:11:37;20.90;94.40
17172;DHT22;8701;50.150;8.756;2023-07-13T22:15:41;20.90;93.90
17172;DHT22;8701;50.150;8.756;2023-07-13T22:19:43;20.80;94.20
17172;DHT22;8701;50.150;8.756;2023-07-13T22:23:47;20.80;93.90
17172;DHT22;8701;50.150;8.756;2023-07-13T22:27:49;20.70;93.80
17172;DHT22;8701;50.150;8.756;2023-07-13T22:31:53;20.70;93.90
17172;DHT22;8701;50.150;8.756;2023-07-13T22:35:55;20.60;93.90
17172;DHT22;8701;50.150;8.756;2023-07-13T22:39:57;20.60;94.50
17172;DHT22;8701;50.150;8.756;2023-07-13T22:44:02;20.60;94.30
17172;DHT22;8701;50.150;8.756;2023-07-13T22:48:07;20.60;94.60
17172;DHT22;8701;50.150;8.756;2023-07-13T22:52:11;20.50;94.70
17172;DHT22;8701;50.150;8.756;2023-07-13T22:56:14;20.40;94.60
17172;DHT22;8701;50.150;8.756;2023-07-13T23:00:17;20.40;95.00
17172;DHT22;8701;50.150;8.756;2023-07-13T23:04:24;20.40;94.90
17172;DHT22;8701;50.150;8.756;2023-07-13T23:08:27;20.40;94.70
17172;DHT22;8701;50.150;8.756;2023-07-13T23:12:31;20.30;95.30
17172;DHT22;8701;50.150;8.756;2023-07-13T23:16:33;20.30;95.10
17172;DHT22;8701;50.150;8.756;2023-07-13T23:20:37;20.20;95.20
17172;DHT22;8701;50.150;8.756;2023-07-13T23:24:39;20.10;95.30
17172;DHT22;8701;50.150;8.756;2023-07-13T23:28:43;20.10;95.40
17172;DHT22;8701;50.150;8.756;2023-07-13T23:32:46;20.10;95.80
17172;DHT22;8701;50.150;8.756;2023-07-13T23:36:50;20.10;95.70
17172;DHT22;8701;50.150;8.756;2023-07-13T23:40:53;19.90;95.50
17172;DHT22;8701;50.150;8.756;2023-07-13T23:44:55;19.90;95.90
17172;DHT22;8701;50.150;8.756;2023-07-13T23:49:00;19.80;96.10
17172;DHT22;8701;50.150;8.756;2023-07-13T23:53:04;19.80;96.40
17172;DHT22;8701;50.150;8.756;2023-07-13T23:57:08;19.70;96.40
